Latest Weather Observations for Wyndham Airport

IDW60801

Issued at 7:35 pm WST Friday 19 September 2014 (issued every 30 minutes, with the page automatically refreshed every 10 minutes)

About weather observations | Map of weather stations | Latest weather observations for WA | Other Formats
Station Details ID: 001006 Name: WYNDHAM AERO Lat: -15.51 Lon: 128.15 Height: 3.8 m
Data from the previous 72 hours. | See also: Recent months for locations in Western Australia
Date/Time
WST
Temp
°C
App
Temp
°C
Dew
Point
Rel
Hum
%
Delta-T
°C
Wind Press
QNH
hPa
Press
MSL
hPa
Rain
since 9 am
mm
Dir
 
Spd
km/h
Gust
km/h
Spd
kts
Gust
kts
19/07:30pm 30.7 27.9 2.9 17 14.0 SW 7 9 4 5 1012.9 1012.9 0.0
19/07:00pm 32.0 28.0 3.1 16 14.7 N 13 17 7 9 1012.4 1012.4 0.0
19/06:30pm 32.7 27.9 4.5 17 14.8 N 19 24 10 13 1012.1 1012.1 0.0
19/06:00pm 32.7 28.7 8.2 22 13.6 N 19 26 10 14 1011.8 1011.8 0.0
19/05:30pm 33.6 29.2 7.5 20 14.4 N 20 26 11 14 1011.4 1011.4 0.0
19/05:00pm 34.6 30.4 7.6 19 15.0 NNW 19 24 10 13 1010.9 1010.9 0.0
19/04:30pm 35.5 31.3 7.5 18 15.6 NNW 19 26 10 14 1010.8 1010.8 0.0
19/04:00pm 36.2 31.8 7.3 17 16.1 NNW 20 26 11 14 1010.7 1010.7 0.0
19/03:30pm 36.7 32.8 8.5 18 16.1 NNW 19 26 10 14 1010.4 1010.4 0.0
19/03:00pm 37.0 35.2 7.0 16 16.7 SSW 6 13 3 7 1010.4 1010.4 0.0
19/02:30pm 37.6 35.1 8.4 17 16.7 ESE 11 17 6 9 1010.5 1010.5 0.0
19/02:00pm 36.8 34.8 6.9 16 16.6 NNW 7 15 4 8 1010.9 1010.9 0.0
19/01:30pm 38.2 35.5 10.5 19 16.4 NE 15 24 8 13 1011.2 1011.2 0.0
19/01:00pm 37.2 34.9 10.5 20 15.7 NNE 13 28 7 15 1011.7 1011.7 0.0
19/12:30pm 35.8 34.2 10.1 21 14.9 NNE 9 19 5 10 1012.3 1012.3 0.0
19/12:00pm 35.5 33.6 11.8 24 14.1 NNW 13 24 7 13 1013.0 1013.0 0.0
19/11:30am 35.6 33.9 12.5 24 13.9 NW 13 19 7 10 1013.7 1013.7 0.0
19/11:00am 34.7 33.2 13.0 27 13.1 WSW 13 24 7 13 1014.2 1014.2 0.0
19/10:30am 33.3 32.1 13.9 31 11.8 W 13 19 7 10 1014.8 1014.8 0.0
19/10:00am 33.1 32.5 14.7 33 11.3 W 11 19 6 10 1015.1 1015.1 0.0
19/09:30am 31.9 31.6 15.4 37 10.2 W 11 19 6 10 1015.8 1015.8 0.0
19/09:00am 31.6 31.9 16.0 39 9.7 W 9 17 5 9 1016.1 1016.1 0.0
19/08:30am 29.4 29.7 16.9 47 7.8 W 11 15 6 8 1016.2 1016.2 0.0
19/08:00am 28.8 29.9 16.7 48 7.5 W 6 13 3 7 1016.3 1016.3 0.0
19/07:30am 27.3 28.1 17.2 54 6.3 ESE 9 22 5 12 1016.5 1016.5 0.0
19/07:00am 24.8 23.2 16.5 60 5.1 ESE 20 24 11 13 1016.4 1016.4 0.0
19/06:30am 23.2 21.5 16.3 65 4.2 ESE 20 30 11 16 1016.0 1016.0 0.0
19/06:00am 22.2 20.4 16.0 68 3.7 ESE 20 26 11 14 1015.5 1015.5 0.0
19/05:30am 19.6 20.7 13.5 68 3.5 CALM 0 0 0 0 1014.3 1014.3 0.0
19/05:00am 19.9 21.0 13.6 67 3.6 CALM 0 0 0 0 1013.7 1013.7 0.0
19/04:30am 20.6 21.4 13.6 64 4.0 ESE 2 9 1 5 1013.3 1013.3 0.0
19/04:00am 21.9 23.1 13.8 60 4.7 CALM 0 0 0 0 1013.1 1013.1 0.0
19/03:30am 21.6 21.0 11.6 53 5.6 W 6 9 3 5 1012.6 1012.6 0.0
19/03:00am 23.5 24.9 14.5 57 5.3 CALM 0 0 0 0 1012.5 1012.5 0.0
19/02:30am 22.6 23.2 14.2 59 4.9 WSW 4 7 2 4 1012.3 1012.3 0.0
19/02:00am 24.7 25.3 15.3 56 5.7 SSW 6 9 3 5 1012.4 1012.4 0.0
19/01:30am 22.8 23.6 13.8 57 5.2 NNW 2 7 1 4 1012.6 1012.6 0.0
19/01:00am 22.8 23.0 14.6 60 4.8 NW 7 9 4 5 1012.9 1012.9 0.0
19/12:30am 23.6 25.4 15.6 61 4.8 CALM 0 6 0 3 1012.9 1012.9 0.0
19/12:00am 23.5 25.1 14.8 58 5.2 NNE 0 0 0 0 1013.1 1013.1 0.0
 
Date/Time
WST
Temp
°C
App
Temp
°C
Dew
Point
Rel
Hum
%
Delta-T
°C
Wind Press
QNH
hPa
Press
MSL
hPa
Rain
since 9 am
mm
Dir
 
Spd
km/h
Gust
km/h
Spd
kts
Gust
kts
18/11:30pm 24.4 26.1 16.1 60 5.1 NNE 2 6 1 3 1013.5 1013.5 0.0
18/11:00pm 24.1 24.8 15.6 59 5.1 N 6 9 3 5 1013.8 1013.8 0.0
18/10:30pm 24.6 24.4 14.7 54 5.9 WSW 9 11 5 6 1014.0 1014.0 0.0
18/10:00pm 24.7 26.4 15.3 56 5.7 CALM 0 0 0 0 1014.0 1014.0 0.0
18/09:30pm 24.5 25.7 13.7 51 6.3 CALM 0 0 0 0 1014.1 1014.1 0.0
18/09:00pm 26.4 26.9 15.1 49 6.8 NE 6 9 3 5 1014.1 1014.1 0.0
18/08:30pm 26.7 26.3 15.1 49 7.0 S 11 13 6 7 1014.3 1014.3 0.0
18/08:00pm 28.1 28.6 15.1 45 7.9 S 6 9 3 5 1014.0 1014.0 0.0
18/07:30pm 28.4 27.9 15.0 44 8.1 SW 11 17 6 9 1013.9 1013.9 0.0
18/07:00pm 29.5 29.2 14.5 40 9.1 W 9 13 5 7 1013.6 1013.6 0.0
18/06:30pm 30.7 29.2 13.0 33 10.5 NNE 13 20 7 11 1013.0 1013.0 0.0
18/06:00pm 30.5 28.5 15.0 39 9.5 N 19 24 10 13 1012.5 1012.5 0.0
18/05:30pm 31.2 28.7 15.2 38 9.9 N 22 30 12 16 1012.2 1012.2 0.0
18/05:00pm 32.0 28.8 14.2 34 10.8 N 24 35 13 19 1011.7 1011.7 0.0
18/04:30pm 33.2 29.5 13.8 31 11.8 N 26 41 14 22 1011.2 1011.2 0.0
18/04:00pm 34.4 29.7 12.1 26 13.3 N 28 37 15 20 1010.9 1010.9 0.0
18/03:30pm 35.6 32.0 14.3 28 13.2 N 26 35 14 19 1010.7 1010.7 0.0
18/03:00pm 36.1 32.7 14.7 28 13.3 NNW 26 33 14 18 1010.7 1010.7 0.0
18/02:30pm 36.6 34.8 13.4 25 14.2 NNE 15 22 8 12 1010.7 1010.7 0.0
18/02:00pm 36.7 35.1 12.8 24 14.5 NNE 13 24 7 13 1011.1 1011.1 0.0
18/01:30pm 37.0 34.2 13.1 24 14.6 NNE 20 26 11 14 1011.4 1011.4 0.0
18/01:00pm 37.1 34.3 13.2 24 14.6 NNE 20 35 11 19 1012.0 1012.0 0.0
18/12:30pm 36.0 34.4 12.9 25 14.0 ENE 13 24 7 13 1012.6 1012.6 0.0
18/12:00pm 35.1 34.8 14.4 29 12.8 WSW 9 17 5 9 1013.2 1013.2 0.0
18/11:30am 35.3 35.3 15.1 30 12.6 WSW 9 19 5 10 1013.8 1013.8 0.0
18/11:00am 34.5 33.8 14.4 30 12.4 W 11 20 6 11 1014.6 1014.6 0.0
18/10:30am 33.4 32.9 14.9 32 11.4 W 11 19 6 10 1015.0 1015.0 0.0
18/10:00am 32.3 31.9 15.3 35 10.5 WNW 11 17 6 9 1015.8 1015.8 0.0
18/09:30am 32.5 32.5 16.3 37 10.2 NNW 11 19 6 10 1016.2 1016.2 0.0
18/09:00am 31.9 31.5 16.2 38 9.8 NNE 13 19 7 10 1016.8 1016.8 0.0
18/08:30am 30.7 30.1 16.7 43 8.8 N 15 20 8 11 1017.0 1017.0 0.0
18/08:00am 29.6 29.1 16.8 46 8.0 N 15 20 8 11 1017.2 1017.2 0.0
18/07:30am 29.0 28.6 16.2 46 7.9 NNE 13 17 7 9 1016.8 1016.8 0.0
18/07:00am 27.4 25.6 15.4 48 7.3 ESE 19 22 10 12 1016.4 1016.4 0.0
18/06:30am 26.3 27.2 16.5 54 6.0 E 7 11 4 6 1015.6 1015.6 0.0
18/06:00am 23.1 24.8 15.2 61 4.7 CALM 0 0 0 0 1014.8 1014.8 0.0
18/05:30am 22.6 24.4 15.4 64 4.3 CALM 0 0 0 0 1014.4 1014.4 0.0
18/05:00am 22.8 24.6 15.4 63 4.4 CALM 0 0 0 0 1013.9 1013.9 0.0
18/04:30am 23.4 24.0 15.2 60 4.9 S 6 7 3 4 1013.5 1013.5 0.0
18/04:00am 24.1 24.9 14.8 56 5.5 SSW 4 7 2 4 1013.2 1013.2 0.0
18/03:30am 24.2 25.9 15.1 56 5.4 CALM 0 9 0 5 1012.9 1012.9 0.0
18/03:00am 23.5 23.4 13.9 55 5.6 W 7 9 4 5 1012.7 1012.7 0.0
18/02:30am 23.8 24.1 14.5 56 5.5 W 6 7 3 4 1012.6 1012.6 0.0
18/02:00am 24.0 23.6 14.1 54 5.8 W 9 9 5 5 1012.6 1012.6 0.0
18/01:30am 24.3 25.0 15.5 58 5.3 NW 6 7 3 4 1012.7 1012.7 0.0
18/01:00am 23.7 24.4 15.5 60 4.9 NW 6 7 3 4 1012.8 1012.8 0.0
18/12:30am 23.3 23.6 14.6 58 5.1 WNW 6 7 3 4 1013.0 1013.0 0.0
18/12:00am 24.3 24.4 14.4 54 5.9 SW 7 11 4 6 1013.2 1013.2 0.0
 
Date/Time
WST
Temp
°C
App
Temp
°C
Dew
Point
Rel
Hum
%
Delta-T
°C
Wind Press
QNH
hPa
Press
MSL
hPa
Rain
since 9 am
mm
Dir
 
Spd
km/h
Gust
km/h
Spd
kts
Gust
kts
17/11:30pm 24.1 25.5 14.5 55 5.7 CALM 0 0 0 0 1013.5 1013.5 0.0
17/11:00pm 24.4 26.1 15.1 56 5.6 CALM 0 2 0 1 1013.7 1013.7 0.0
17/10:30pm 24.6 24.7 15.5 57 5.5 NE 9 11 5 6 1013.7 1013.7 0.0
17/10:00pm 25.7 25.1 15.7 54 6.1 ESE 13 15 7 8 1013.7 1013.7 0.0
17/09:30pm 26.4 25.3 15.4 50 6.7 SE 15 17 8 9 1013.5 1013.5 0.0
17/09:00pm 27.9 26.5 15.5 46 7.6 SE 17 20 9 11 1013.4 1013.4 0.0
17/08:30pm 27.9 27.3 14.5 44 8.1 SE 11 15 6 8 1013.4 1013.4 0.0
17/08:00pm 29.2 29.1 13.8 39 9.2 W 7 11 4 6 1013.1 1013.1 0.0
17/07:30pm 29.1 28.8 14.5 41 8.8 SSE 9 19 5 10 1012.9 1012.9 0.0
17/07:00pm 30.1 27.8 14.6 39 9.4 N 20 30 11 16 1012.3 1012.3 0.0
17/06:30pm 30.1 26.4 15.0 40 9.2 N 28 39 15 21 1012.0 1012.0 0.0
17/06:00pm 30.4 26.8 15.3 40 9.3 N 28 35 15 19 1011.6 1011.6 0.0
17/05:30pm 32.0 29.1 15.1 36 10.4 N 24 33 13 18 1011.2 1011.2 0.0
17/05:00pm 33.9 31.0 13.9 30 12.2 N 22 28 12 15 1010.7 1010.7 0.0
17/04:30pm 34.8 31.8 12.5 26 13.4 N 20 26 11 14 1010.4 1010.4 0.0
17/04:00pm 35.9 33.2 12.8 25 14.0 NNW 19 26 10 14 1010.2 1010.2 0.0
17/03:30pm 36.2 33.0 11.8 23 14.6 NNW 20 26 11 14 1010.2 1010.2 0.0
17/03:00pm 36.9 34.6 11.7 22 15.1 N 15 20 8 11 1010.1 1010.1 0.0
17/02:30pm 36.5 34.4 11.3 22 14.9 NNW 13 22 7 12 1010.2 1010.2 0.0
17/02:00pm 36.6 35.3 11.4 22 15.0 W 9 15 5 8 1010.5 1010.5 0.0
17/01:30pm 36.4 34.3 11.3 22 14.9 NNW 13 19 7 10 1010.8 1010.8 0.0
17/01:00pm 36.0 34.8 11.6 23 14.5 NNW 9 17 5 9 1011.2 1011.2 0.0
17/12:30pm 35.5 34.2 12.5 25 13.8 W 11 19 6 10 1011.8 1011.8 0.0
17/12:00pm 34.4 32.0 12.7 27 13.0 W 17 22 9 12 1012.4 1012.4 0.0
17/11:30am 34.2 31.6 12.0 26 13.2 W 17 26 9 14 1012.9 1012.9 0.0
17/11:00am 33.8 31.0 12.7 27 12.6 WNW 19 24 10 13 1013.6 1013.6 0.0
17/10:30am 33.6 32.7 12.6 28 12.6 NNW 9 17 5 9 1014.3 1014.3 0.0
17/10:00am 32.6 32.3 12.8 30 11.8 W 6 11 3 6 1014.8 1014.8 0.0
17/09:30am 31.4 30.8 13.6 33 10.7 NNW 9 17 5 9 1015.4 1015.4 0.0
17/09:00am 30.5 30.5 14.2 37 9.9 N 7 13 4 7 1015.7 1015.7 0.0
17/08:30am 30.0 29.1 13.7 37 9.8 ENE 11 17 6 9 1015.7 1015.7 0.0
17/08:00am 29.0 29.1 14.4 41 8.8 ENE 7 15 4 8 1015.5 1015.5 0.0
17/07:30am 28.1 27.4 15.4 46 7.8 ENE 13 19 7 10 1015.3 1015.3 0.0
17/07:00am 26.8 26.4 15.2 49 7.0 E 11 19 6 10 1014.7 1014.7 0.0
17/06:30am 24.9 24.6 14.4 52 6.2 E 9 17 5 9 1014.4 1014.4 0.0
17/06:00am 21.7 22.6 12.8 57 5.1 CALM 0 4 0 2 1013.3 1013.3 0.0
17/05:30am 21.6 21.0 12.2 55 5.3 WSW 7 9 4 5 1012.9 1012.9 0.0
17/05:00am 21.7 20.9 12.8 57 5.1 NNW 9 11 5 6 1012.4 1012.4 0.0
17/04:30am 21.8 22.0 12.9 57 5.1 WNW 4 7 2 4 1012.2 1012.2 0.0
17/04:00am 21.8 21.3 12.6 56 5.2 W 7 7 4 4 1012.0 1012.0 0.0
17/03:30am 21.9 21.5 13.0 57 5.1 W 7 9 4 5 1011.7 1011.7 0.0
17/03:00am 21.7 20.5 12.8 57 5.1 NW 11 11 6 6 1011.3 1011.3 0.0
17/02:30am 20.9 20.1 11.8 56 5.1 NW 7 9 4 5 1011.2 1011.2 0.0
17/02:00am 21.1 20.3 12.8 59 4.7 NNW 9 11 5 6 1011.2 1011.2 0.0
17/01:30am 22.7 23.3 15.3 63 4.4 WNW 6 7 3 4 1011.3 1011.3 0.0
17/01:00am 21.8 22.8 15.4 67 3.8 WNW 4 7 2 4 1011.6 1011.6 0.0
17/12:30am 21.0 20.5 11.9 56 5.1 W 6 7 3 4 1011.5 1011.5 0.0
17/12:00am 21.5 21.5 13.7 61 4.5 W 6 6 3 3 1011.7 1011.7 0.0
 
Date/Time
WST
Temp
°C
App
Temp
°C
Dew
Point
Rel
Hum
%
Delta-T
°C
Wind Press
QNH
hPa
Press
MSL
hPa
Rain
since 9 am
mm
Dir
 
Spd
km/h
Gust
km/h
Spd
kts
Gust
kts
16/11:30pm 21.3 20.2 9.9 48 6.1 W 6 7 3 4 1012.0 1012.0 0.0
16/11:00pm 21.5 21.9 12.4 56 5.1 NW 2 7 1 4 1012.2 1012.2 0.0
16/10:30pm 23.2 24.4 13.9 56 5.4 CALM 0 0 0 0 1012.4 1012.4 0.0
16/10:00pm 21.9 20.6 10.1 47 6.4 SW 7 9 4 5 1012.3 1012.3 0.0
16/09:30pm 23.9 24.6 12.2 48 6.7 CALM 0 0 0 0 1012.5 1012.5 0.0
16/09:00pm 25.2 24.4 11.7 43 7.7 E 7 9 4 5 1012.5 1012.5 0.0
16/08:30pm 24.9 23.8 10.0 39 8.2 ENE 6 9 3 5 1012.4 1012.4 0.0
16/08:00pm 26.6 25.1 11.9 40 8.4 W 11 17 6 9 1012.2 1012.2 0.0

Other Formats:

Comma delimited format used in spreadsheet applications
http://www.bom.gov.au/fwo/IDW60801/IDW60801.95214.axf

JavaScript Object Notation format (JSON) in row-major order
http://www.bom.gov.au/fwo/IDW60801/IDW60801.95214.json